createdAt,value
2022-08-26T00:01:00.137Z,99943.66
2022-08-26T00:06:01.707Z,99946.19
2022-08-26T00:11:04.289Z,99940.22
2022-08-26T00:16:09.153Z,99943.53
2022-08-26T00:21:13.505Z,99947.19
2022-08-26T00:26:15.195Z,99938.59
2022-08-26T00:31:16.990Z,99939.44
2022-08-26T00:36:20.240Z,99939.56
2022-08-26T00:41:22.161Z,99949.34
2022-08-26T00:46:28.913Z,99955.72
2022-08-26T00:51:31.434Z,99952.19
2022-08-26T00:56:42.218Z,99947.81
2022-08-26T01:01:44.366Z,99954.56
2022-08-26T01:06:50.734Z,99951.06
2022-08-26T01:11:55.740Z,99948.72
2022-08-26T01:16:57.690Z,99949.34
2022-08-26T01:22:05.548Z,99948.53
2022-08-26T01:27:09.917Z,99949.13
2022-08-26T01:32:15.970Z,99950.66
2022-08-26T01:37:22.871Z,99955.03
2022-08-26T01:42:27.460Z,99955.59
2022-08-26T01:47:35.207Z,99957.72
2022-08-26T01:52:41.332Z,99963.94
2022-08-26T01:57:47.804Z,99967.56
2022-08-26T02:03:11.860Z,99973.56
2022-08-26T02:08:24.889Z,99971.56
2022-08-26T02:13:30.245Z,99972.41
2022-08-26T02:18:35.829Z,99968.72
2022-08-26T02:23:43.228Z,99973.91
2022-08-26T02:28:49.978Z,99969.94
2022-08-26T02:33:51.746Z,99983.03
2022-08-26T02:38:53.217Z,99986.44
2022-08-26T02:43:57.202Z,99984.09
2022-08-26T02:49:01.329Z,99991.00
2022-08-26T02:54:02.987Z,99988.44
2022-08-26T02:59:06.129Z,99984.41
2022-08-26T03:04:10.910Z,99986.50
2022-08-26T03:09:18.451Z,99987.75
2022-08-26T03:14:21.197Z,99981.63
2022-08-26T03:19:25.981Z,99994.03
2022-08-26T03:24:27.796Z,99988.69
2022-08-26T03:29:49.562Z,99981.19
2022-08-26T03:34:53.006Z,99982.63
2022-08-26T03:39:54.710Z,99985.91
2022-08-26T03:44:57.702Z,99981.06
2022-08-26T03:49:59.386Z,99983.66
2022-08-26T03:55:01.331Z,99983.06
2022-08-26T04:00:10.272Z,99982.34
2022-08-26T04:05:17.605Z,99985.25
2022-08-26T04:10:28.983Z,99993.75
2022-08-26T04:15:31.026Z,99991.72
2022-08-26T04:20:32.563Z,99989.91
2022-08-26T04:25:34.759Z,99990.84
2022-08-26T04:30:37.924Z,99993.22
2022-08-26T04:35:40.142Z,99986.66
2022-08-26T04:40:46.935Z,99991.88
2022-08-26T04:45:50.384Z,99994.06
2022-08-26T04:50:53.096Z,99993.16
2022-08-26T04:55:55.238Z,99990.28
2022-08-26T05:00:57.277Z,99993.63
2022-08-26T05:06:00.638Z,100001.31
2022-08-26T05:11:04.931Z,99998.38
2022-08-26T05:16:11.655Z,100007.66
2022-08-26T05:21:22.566Z,100014.59
2022-08-26T05:26:28.369Z,100013.41
2022-08-26T05:31:31.795Z,100029.91
2022-08-26T05:36:35.566Z,100028.47
2022-08-26T05:41:40.764Z,100044.91
2022-08-26T05:46:44.776Z,100041.25
2022-08-26T05:51:47.702Z,100052.00
2022-08-26T05:56:52.337Z,100055.47
2022-08-26T06:01:55.203Z,100052.41
2022-08-26T06:06:57.236Z,100047.50
2022-08-26T06:11:58.946Z,100050.47
2022-08-26T06:17:00.847Z,100043.38
2022-08-26T06:22:23.734Z,100042.56
2022-08-26T06:27:27.309Z,100043.63
2022-08-26T06:32:32.174Z,100038.19
2022-08-26T06:37:33.726Z,100030.47
2022-08-26T06:42:38.053Z,100039.81
2022-08-26T06:47:44.445Z,100044.19
2022-08-26T06:52:52.660Z,100031.72
2022-08-26T06:57:57.007Z,100039.44
2022-08-26T07:02:58.536Z,100037.78
2022-08-26T07:08:00.408Z,100043.00
2022-08-26T07:13:02.279Z,100046.72
2022-08-26T07:18:07.255Z,100043.09
2022-08-26T07:23:11.641Z,100039.44
2022-08-26T07:28:13.794Z,100044.31
2022-08-26T07:33:15.422Z,100059.00
2022-08-26T07:38:17.017Z,100047.28
2022-08-26T07:43:18.660Z,100055.28
2022-08-26T07:48:23.312Z,100053.66
2022-08-26T07:53:24.799Z,100056.53
2022-08-26T07:58:26.481Z,100046.34
2022-08-26T08:03:28.178Z,100050.94
2022-08-26T08:08:32.898Z,100043.50
2022-08-26T08:13:34.439Z,100048.03
2022-08-26T08:18:36.018Z,100039.28
2022-08-26T08:23:37.748Z,100037.13
2022-08-26T08:28:39.868Z,100035.91
2022-08-26T08:33:43.017Z,100030.56
2022-08-26T08:38:45.125Z,100030.50
2022-08-26T08:43:47.402Z,100035.88
2022-08-26T08:48:58.642Z,100039.75
2022-08-26T08:54:02.666Z,100026.72
2022-08-26T08:59:24.591Z,100024.16
2022-08-26T09:05:04.995Z,100020.47
2022-08-26T09:10:15.452Z,100012.50
2022-08-26T09:15:28.681Z,100016.97
2022-08-26T09:20:53.217Z,100006.47
2022-08-26T09:26:01.251Z,100002.66
2022-08-26T09:31:13.675Z,99996.81
2022-08-26T09:36:24.909Z,99994.19
2022-08-26T09:41:35.451Z,99981.25
2022-08-26T09:51:50.159Z,99976.13
2022-08-26T09:56:52.458Z,99966.25
2022-08-26T10:01:54.956Z,99964.91
2022-08-26T10:07:06.412Z,99961.94
2022-08-26T10:12:16.973Z,99949.19
2022-08-26T10:17:34.130Z,99935.88
2022-08-26T10:22:50.485Z,99925.41
2022-08-26T10:28:18.087Z,99914.19
2022-08-26T10:33:20.106Z,99904.88
2022-08-26T10:38:31.983Z,99902.72
2022-08-26T10:43:55.481Z,99899.31
2022-08-26T10:49:10.511Z,99905.63
2022-08-26T10:54:19.805Z,99888.84
2022-08-26T10:59:37.822Z,99888.00
2022-08-26T11:04:59.042Z,99879.16
2022-08-26T11:10:10.339Z,99877.13
2022-08-26T11:15:24.487Z,99875.75
2022-08-26T11:20:47.321Z,99869.38
2022-08-26T11:26:01.562Z,99866.13
2022-08-26T11:31:08.714Z,99859.44
2022-08-26T11:36:27.570Z,99853.16
2022-08-26T11:41:31.359Z,99844.66
2022-08-26T11:46:37.368Z,99842.31
2022-08-26T11:51:40.848Z,99826.50
2022-08-26T11:56:46.971Z,99822.97
2022-08-26T12:01:51.811Z,99824.50
2022-08-26T12:06:53.458Z,99826.38
2022-08-26T12:12:16.449Z,99826.31
2022-08-26T12:17:26.158Z,99836.69
2022-08-26T12:22:40.613Z,99832.88
2022-08-26T12:27:53.779Z,99848.56
2022-08-26T12:33:22.161Z,99842.66
2022-08-26T12:38:34.063Z,99845.38
2022-08-26T12:43:44.503Z,99830.47
2022-08-26T12:48:49.127Z,99825.91
2022-08-26T12:53:51.175Z,99809.53
2022-08-26T12:59:17.628Z,99793.22
2022-08-26T13:04:40.819Z,99776.06
2022-08-26T13:09:42.283Z,99771.81
2022-08-26T13:14:44.632Z,99777.94
2022-08-26T13:19:46.141Z,99776.47
2022-08-26T13:24:48.057Z,99767.47
2022-08-26T13:29:51.364Z,99762.81
2022-08-26T13:34:55.014Z,99757.38
2022-08-26T13:39:56.558Z,99756.50
2022-08-26T13:44:59.018Z,99762.38
2022-08-26T13:50:00.473Z,99761.75
2022-08-26T13:55:02.111Z,99766.63
2022-08-26T14:00:05.114Z,99759.72
2022-08-26T14:05:07.373Z,99763.06
2022-08-26T14:10:09.439Z,99765.41
2022-08-26T14:15:11.835Z,99764.38
2022-08-26T14:20:17.454Z,99754.84
2022-08-26T14:25:19.899Z,99758.00
2022-08-26T14:30:21.873Z,99759.16
2022-08-26T14:35:27.676Z,99764.81
2022-08-26T14:40:31.578Z,99765.16
2022-08-26T14:50:43.375Z,99773.53
2022-08-26T14:55:46.008Z,99775.66
2022-08-26T15:00:47.921Z,99787.78
2022-08-26T15:05:49.493Z,99819.78
2022-08-26T15:10:51.618Z,99824.72
2022-08-26T15:15:53.490Z,99836.13
2022-08-26T15:20:55.743Z,99838.06
2022-08-26T15:25:57.550Z,99821.22
2022-08-26T15:31:00.802Z,99808.03
2022-08-26T15:36:04.590Z,99799.19
2022-08-26T15:41:08.676Z,99821.06
2022-08-26T15:46:11.856Z,99830.69
2022-08-26T15:51:26.247Z,99823.25
2022-08-26T15:56:31.020Z,99822.69
2022-08-26T16:01:32.767Z,99814.13
2022-08-26T16:06:36.702Z,99838.59
2022-08-26T16:11:38.485Z,99854.19
2022-08-26T16:16:41.799Z,99859.63
2022-08-26T16:21:43.317Z,99876.25
2022-08-26T16:26:45.276Z,99892.69
2022-08-26T16:31:47.655Z,99899.59
2022-08-26T16:36:49.194Z,99910.44
2022-08-26T16:41:50.668Z,99913.09
2022-08-26T16:46:55.992Z,99909.09
2022-08-26T16:52:00.280Z,99889.69
2022-08-26T16:57:02.563Z,99906.66
2022-08-26T17:02:05.073Z,99919.56
2022-08-26T17:07:06.959Z,99939.22
2022-08-26T17:12:08.984Z,99965.13
2022-08-26T17:17:11.949Z,99970.88
2022-08-26T17:22:13.480Z,99976.69
2022-08-26T17:27:15.285Z,99985.94
2022-08-26T17:32:16.738Z,99965.56
2022-08-26T17:37:18.234Z,99974.41
2022-08-26T17:42:19.869Z,99985.81
2022-08-26T17:47:21.319Z,99975.56
2022-08-26T17:52:23.109Z,99976.44
2022-08-26T17:57:26.130Z,99971.09
2022-08-26T18:07:33.509Z,99994.09
2022-08-26T18:12:43.239Z,99993.28
2022-08-26T18:17:44.826Z,100020.13
2022-08-26T18:22:47.793Z,100011.59
2022-08-26T18:27:49.439Z,100018.94
2022-08-26T18:32:52.084Z,100012.53
2022-08-26T18:37:53.872Z,100036.53
2022-08-26T18:42:55.342Z,100038.25
2022-08-26T18:47:57.396Z,100039.78
2022-08-26T18:52:58.821Z,100037.88
2022-08-26T18:58:00.281Z,100043.50
2022-08-26T19:03:01.829Z,100036.22
2022-08-26T19:08:03.514Z,100033.84
2022-08-26T19:13:09.632Z,100033.03
2022-08-26T19:18:14.443Z,100024.69
2022-08-26T19:23:30.997Z,100023.09
2022-08-26T19:28:34.245Z,100020.31
2022-08-26T19:33:37.992Z,100019.13
2022-08-26T19:38:39.485Z,100034.31
2022-08-26T19:43:41.613Z,100054.03
2022-08-26T19:48:44.409Z,100058.34
2022-08-26T19:53:47.946Z,100069.28
2022-08-26T19:58:50.643Z,100076.94
2022-08-26T20:03:52.459Z,100083.09
2022-08-26T20:08:54.097Z,100083.22
2022-08-26T20:13:59.043Z,100087.97
2022-08-26T20:19:18.813Z,100078.84
2022-08-26T20:24:21.090Z,100072.97
2022-08-26T20:29:22.623Z,100084.84
2022-08-26T20:34:24.636Z,100095.88
2022-08-26T20:39:29.509Z,100106.03
2022-08-26T20:44:30.939Z,100100.19
2022-08-26T20:49:32.437Z,100099.94
2022-08-26T20:54:36.390Z,100098.53
2022-08-26T20:59:37.847Z,100098.53
2022-08-26T21:04:40.424Z,100106.97
2022-08-26T21:09:42.013Z,100111.66
2022-08-26T21:14:47.725Z,100114.25
2022-08-26T21:19:51.217Z,100099.13
2022-08-26T21:24:52.672Z,100097.69
2022-08-26T21:29:55.635Z,100095.69
2022-08-26T21:34:59.169Z,100090.94
2022-08-26T21:40:05.228Z,100106.03
2022-08-26T21:45:07.419Z,100111.38
2022-08-26T21:50:09.229Z,100118.38
2022-08-26T21:55:11.769Z,100133.09
2022-08-26T22:00:15.744Z,100133.91
2022-08-26T22:05:17.253Z,100139.09
2022-08-26T22:10:18.862Z,100142.59
2022-08-26T22:15:23.178Z,100157.31
2022-08-26T22:20:24.703Z,100160.78
2022-08-26T22:25:26.827Z,100171.84
2022-08-26T22:30:28.469Z,100171.81
2022-08-26T22:35:30.979Z,100178.78
2022-08-26T22:40:33.831Z,100187.16
2022-08-26T22:45:44.148Z,100188.31
2022-08-26T22:50:47.443Z,100172.56
2022-08-26T22:55:49.470Z,100171.44
2022-08-26T23:00:50.969Z,100174.88
2022-08-26T23:05:56.056Z,100180.97
2022-08-26T23:10:57.508Z,100176.81
2022-08-26T23:16:03.932Z,100172.56
2022-08-26T23:21:06.198Z,100173.03
2022-08-26T23:26:08.294Z,100170.88
2022-08-26T23:31:09.755Z,100164.25
2022-08-26T23:36:14.619Z,100174.28
2022-08-26T23:41:22.327Z,100169.53
2022-08-26T23:46:23.817Z,100169.69
2022-08-26T23:51:44.271Z,100175.59
2022-08-26T23:56:47.557Z,100178.88
